sensor_id;sensor_type;location;lat;lon;timestamp;temperature;humidity
25248;DHT22;13191;47.472;11.214;2023-05-07T00:01:49;10.30;99.90
25248;DHT22;13191;47.472;11.214;2023-05-07T00:04:15;10.30;99.90
25248;DHT22;13191;47.472;11.214;2023-05-07T00:06:40;10.40;99.90
25248;DHT22;13191;47.472;11.214;2023-05-07T00:09:06;10.40;99.90
25248;DHT22;13191;47.472;11.214;2023-05-07T00:11:32;10.40;99.90
25248;DHT22;13191;47.472;11.214;2023-05-07T00:13:57;10.20;99.90
25248;DHT22;13191;47.472;11.214;2023-05-07T00:16:23;10.20;99.90
25248;DHT22;13191;47.472;11.214;2023-05-07T00:18:48;10.20;99.90
25248;DHT22;13191;47.472;11.214;2023-05-07T00:21:14;10.30;99.90
25248;DHT22;13191;47.472;11.214;2023-05-07T00:23:40;10.20;99.90
25248;DHT22;13191;47.472;11.214;2023-05-07T00:26:05;10.30;99.90
25248;DHT22;13191;47.472;11.214;2023-05-07T00:28:30;10.30;99.90
25248;DHT22;13191;47.472;11.214;2023-05-07T00:30:56;10.30;99.90
25248;DHT22;13191;47.472;11.214;2023-05-07T00:33:21;10.30;99.90
25248;DHT22;13191;47.472;11.214;2023-05-07T00:35:47;10.30;99.90
25248;DHT22;13191;47.472;11.214;2023-05-07T00:38:13;10.30;99.90
25248;DHT22;13191;47.472;11.214;2023-05-07T00:40:38;10.30;99.90
25248;DHT22;13191;47.472;11.214;2023-05-07T00:43:04;10.20;99.90
25248;DHT22;13191;47.472;11.214;2023-05-07T00:45:29;10.10;99.90
25248;DHT22;13191;47.472;11.214;2023-05-07T00:47:55;10.10;99.90
25248;DHT22;13191;47.472;11.214;2023-05-07T00:50:22;10.10;99.90
25248;DHT22;13191;47.472;11.214;2023-05-07T00:52:48;10.10;99.90
25248;DHT22;13191;47.472;11.214;2023-05-07T00:55:14;10.10;99.90
25248;DHT22;13191;47.472;11.214;2023-05-07T00:57:40;10.00;99.90
25248;DHT22;13191;47.472;11.214;2023-05-07T01:00:06;10.00;99.90
25248;DHT22;13191;47.472;11.214;2023-05-07T01:02:34;10.00;99.90
25248;DHT22;13191;47.472;11.214;2023-05-07T01:05:00;10.00;99.90
25248;DHT22;13191;47.472;11.214;2023-05-07T01:07:26;10.10;99.90
25248;DHT22;13191;47.472;11.214;2023-05-07T01:09:51;10.10;99.90
25248;DHT22;13191;47.472;11.214;2023-05-07T01:12:17;10.00;99.90
25248;DHT22;13191;47.472;11.214;2023-05-07T01:14:43;9.90;99.90
25248;DHT22;13191;47.472;11.214;2023-05-07T01:17:08;9.90;99.90
25248;DHT22;13191;47.472;11.214;2023-05-07T01:19:34;9.90;99.90
25248;DHT22;13191;47.472;11.214;2023-05-07T01:22:04;9.90;99.90
25248;DHT22;13191;47.472;11.214;2023-05-07T01:24:32;10.00;99.90
25248;DHT22;13191;47.472;11.214;2023-05-07T01:26:59;10.00;99.90
25248;DHT22;13191;47.472;11.214;2023-05-07T01:29:26;10.00;99.90
25248;DHT22;13191;47.472;11.214;2023-05-07T01:31:52;10.00;99.90
25248;DHT22;13191;47.472;11.214;2023-05-07T01:34:17;10.00;99.90
25248;DHT22;13191;47.472;11.214;2023-05-07T01:36:44;10.00;99.90
25248;DHT22;13191;47.472;11.214;2023-05-07T01:39:11;10.00;99.90
25248;DHT22;13191;47.472;11.214;2023-05-07T01:41:37;9.90;99.90
25248;DHT22;13191;47.472;11.214;2023-05-07T01:44:03;9.70;99.90
25248;DHT22;13191;47.472;11.214;2023-05-07T01:46:28;9.60;99.90
25248;DHT22;13191;47.472;11.214;2023-05-07T01:48:54;9.60;99.90
25248;DHT22;13191;47.472;11.214;2023-05-07T01:51:20;9.60;99.90
25248;DHT22;13191;47.472;11.214;2023-05-07T01:53:46;9.60;99.90
25248;DHT22;13191;47.472;11.214;2023-05-07T01:56:16;9.50;99.90
25248;DHT22;13191;47.472;11.214;2023-05-07T01:58:42;9.60;99.90
25248;DHT22;13191;47.472;11.214;2023-05-07T02:01:07;9.70;99.90
25248;DHT22;13191;47.472;11.214;2023-05-07T02:03:33;9.70;99.90
25248;DHT22;13191;47.472;11.214;2023-05-07T02:05:58;9.70;99.90
25248;DHT22;13191;47.472;11.214;2023-05-07T02:08:23;9.70;99.90
25248;DHT22;13191;47.472;11.214;2023-05-07T02:10:49;9.80;99.90
25248;DHT22;13191;47.472;11.214;2023-05-07T02:13:16;9.80;99.90
25248;DHT22;13191;47.472;11.214;2023-05-07T02:15:42;9.80;99.90
25248;DHT22;13191;47.472;11.214;2023-05-07T02:18:08;9.80;99.90
25248;DHT22;13191;47.472;11.214;2023-05-07T02:20:34;9.70;99.90
25248;DHT22;13191;47.472;11.214;2023-05-07T02:23:00;9.60;99.90
25248;DHT22;13191;47.472;11.214;2023-05-07T02:25:25;9.60;99.90
25248;DHT22;13191;47.472;11.214;2023-05-07T02:27:51;9.60;99.90
25248;DHT22;13191;47.472;11.214;2023-05-07T02:30:16;9.70;99.90
25248;DHT22;13191;47.472;11.214;2023-05-07T02:32:42;9.70;99.90
25248;DHT22;13191;47.472;11.214;2023-05-07T02:35:07;9.70;99.90
25248;DHT22;13191;47.472;11.214;2023-05-07T02:37:33;9.70;99.90
25248;DHT22;13191;47.472;11.214;2023-05-07T02:39:58;9.80;99.90
25248;DHT22;13191;47.472;11.214;2023-05-07T02:42:24;9.60;99.90
25248;DHT22;13191;47.472;11.214;2023-05-07T02:44:49;9.50;99.90
25248;DHT22;13191;47.472;11.214;2023-05-07T02:47:15;9.30;99.90
25248;DHT22;13191;47.472;11.214;2023-05-07T02:49:40;9.30;99.90
25248;DHT22;13191;47.472;11.214;2023-05-07T02:52:06;9.40;99.90
25248;DHT22;13191;47.472;11.214;2023-05-07T02:54:32;9.50;99.90
25248;DHT22;13191;47.472;11.214;2023-05-07T02:56:57;9.50;99.90
25248;DHT22;13191;47.472;11.214;2023-05-07T02:59:23;9.50;99.90
25248;DHT22;13191;47.472;11.214;2023-05-07T03:01:49;9.50;99.90
25248;DHT22;13191;47.472;11.214;2023-05-07T03:04:14;9.60;99.90
25248;DHT22;13191;47.472;11.214;2023-05-07T03:06:40;9.60;99.90
25248;DHT22;13191;47.472;11.214;2023-05-07T03:09:07;9.60;99.90
25248;DHT22;13191;47.472;11.214;2023-05-07T03:11:32;9.60;99.90
25248;DHT22;13191;47.472;11.214;2023-05-07T03:13:58;9.60;99.90
25248;DHT22;13191;47.472;11.214;2023-05-07T03:16:23;9.60;99.90
25248;DHT22;13191;47.472;11.214;2023-05-07T03:18:49;9.50;99.90
25248;DHT22;13191;47.472;11.214;2023-05-07T03:21:14;9.50;99.90
25248;DHT22;13191;47.472;11.214;2023-05-07T03:23:40;9.50;99.90
25248;DHT22;13191;47.472;11.214;2023-05-07T03:26:05;9.40;99.90
25248;DHT22;13191;47.472;11.214;2023-05-07T03:28:30;9.40;99.90
25248;DHT22;13191;47.472;11.214;2023-05-07T03:30:56;9.40;99.90
25248;DHT22;13191;47.472;11.214;2023-05-07T03:33:21;9.40;99.90
25248;DHT22;13191;47.472;11.214;2023-05-07T03:35:47;9.30;99.90
25248;DHT22;13191;47.472;11.214;2023-05-07T03:38:12;9.20;99.90
25248;DHT22;13191;47.472;11.214;2023-05-07T03:40:38;9.30;99.90
25248;DHT22;13191;47.472;11.214;2023-05-07T03:43:03;9.30;99.90
25248;DHT22;13191;47.472;11.214;2023-05-07T03:45:29;9.40;99.90
25248;DHT22;13191;47.472;11.214;2023-05-07T03:47:54;9.40;99.90
25248;DHT22;13191;47.472;11.214;2023-05-07T03:50:20;9.40;99.90
25248;DHT22;13191;47.472;11.214;2023-05-07T03:52:45;9.40;99.90
25248;DHT22;13191;47.472;11.214;2023-05-07T03:55:11;9.40;99.90
25248;DHT22;13191;47.472;11.214;2023-05-07T03:57:36;9.50;99.90
25248;DHT22;13191;47.472;11.214;2023-05-07T04:00:02;9.50;99.90
25248;DHT22;13191;47.472;11.214;2023-05-07T04:02:28;9.50;99.90
25248;DHT22;13191;47.472;11.214;2023-05-07T04:04:54;9.50;99.90
25248;DHT22;13191;47.472;11.214;2023-05-07T04:07:20;9.50;99.90
25248;DHT22;13191;47.472;11.214;2023-05-07T04:09:45;9.50;99.90
25248;DHT22;13191;47.472;11.214;2023-05-07T04:12:11;9.50;99.90
25248;DHT22;13191;47.472;11.214;2023-05-07T04:14:36;9.60;99.90
25248;DHT22;13191;47.472;11.214;2023-05-07T04:17:02;9.60;99.90
25248;DHT22;13191;47.472;11.214;2023-05-07T04:19:28;9.60;99.90
25248;DHT22;13191;47.472;11.214;2023-05-07T04:21:53;9.60;99.90
25248;DHT22;13191;47.472;11.214;2023-05-07T04:24:18;9.50;99.90
25248;DHT22;13191;47.472;11.214;2023-05-07T04:26:44;9.50;99.90
25248;DHT22;13191;47.472;11.214;2023-05-07T04:29:09;9.50;99.90
25248;DHT22;13191;47.472;11.214;2023-05-07T04:31:35;9.50;99.90
25248;DHT22;13191;47.472;11.214;2023-05-07T04:34:00;9.60;99.90
25248;DHT22;13191;47.472;11.214;2023-05-07T04:36:26;9.60;99.90
25248;DHT22;13191;47.472;11.214;2023-05-07T04:38:55;9.60;99.90
25248;DHT22;13191;47.472;11.214;2023-05-07T04:41:20;9.60;99.90
25248;DHT22;13191;47.472;11.214;2023-05-07T04:43:46;9.60;99.90
25248;DHT22;13191;47.472;11.214;2023-05-07T04:46:11;9.50;99.90
25248;DHT22;13191;47.472;11.214;2023-05-07T04:48:37;9.50;99.90
25248;DHT22;13191;47.472;11.214;2023-05-07T04:51:02;9.50;99.90
25248;DHT22;13191;47.472;11.214;2023-05-07T04:53:28;9.50;99.90
25248;DHT22;13191;47.472;11.214;2023-05-07T04:55:56;9.50;99.90
25248;DHT22;13191;47.472;11.214;2023-05-07T04:58:22;9.50;99.90
25248;DHT22;13191;47.472;11.214;2023-05-07T05:00:47;9.50;99.90
25248;DHT22;13191;47.472;11.214;2023-05-07T05:03:13;9.50;99.90
25248;DHT22;13191;47.472;11.214;2023-05-07T05:05:38;9.60;99.90
25248;DHT22;13191;47.472;11.214;2023-05-07T05:08:04;9.70;99.90
25248;DHT22;13191;47.472;11.214;2023-05-07T05:10:29;9.70;99.90
25248;DHT22;13191;47.472;11.214;2023-05-07T05:12:55;9.80;99.90
25248;DHT22;13191;47.472;11.214;2023-05-07T05:15:20;9.80;99.90
25248;DHT22;13191;47.472;11.214;2023-05-07T05:17:46;9.90;99.90
25248;DHT22;13191;47.472;11.214;2023-05-07T05:20:11;10.00;99.90
25248;DHT22;13191;47.472;11.214;2023-05-07T05:22:37;10.10;99.90
25248;DHT22;13191;47.472;11.214;2023-05-07T05:25:03;10.10;99.90
25248;DHT22;13191;47.472;11.214;2023-05-07T05:27:29;10.10;99.90
25248;DHT22;13191;47.472;11.214;2023-05-07T05:29:55;10.20;99.90
25248;DHT22;13191;47.472;11.214;2023-05-07T05:32:20;10.20;99.90
25248;DHT22;13191;47.472;11.214;2023-05-07T05:34:46;10.30;99.90
25248;DHT22;13191;47.472;11.214;2023-05-07T05:37:11;10.40;99.90
25248;DHT22;13191;47.472;11.214;2023-05-07T05:39:37;10.50;99.90
25248;DHT22;13191;47.472;11.214;2023-05-07T05:42:02;10.50;99.90
25248;DHT22;13191;47.472;11.214;2023-05-07T05:44:28;10.60;99.90
25248;DHT22;13191;47.472;11.214;2023-05-07T05:46:53;10.70;99.90
25248;DHT22;13191;47.472;11.214;2023-05-07T05:49:24;10.80;99.90
25248;DHT22;13191;47.472;11.214;2023-05-07T05:51:50;10.80;99.90
25248;DHT22;13191;47.472;11.214;2023-05-07T05:56:41;11.00;99.90
25248;DHT22;13191;47.472;11.214;2023-05-07T05:59:07;11.10;99.90
25248;DHT22;13191;47.472;11.214;2023-05-07T06:01:33;11.20;99.90
25248;DHT22;13191;47.472;11.214;2023-05-07T06:03:58;11.30;99.90
25248;DHT22;13191;47.472;11.214;2023-05-07T06:06:24;11.40;99.90
25248;DHT22;13191;47.472;11.214;2023-05-07T06:08:49;11.50;99.90
25248;DHT22;13191;47.472;11.214;2023-05-07T06:11:15;11.50;99.90
25248;DHT22;13191;47.472;11.214;2023-05-07T06:13:42;11.60;99.90
25248;DHT22;13191;47.472;11.214;2023-05-07T06:16:07;11.60;99.90
25248;DHT22;13191;47.472;11.214;2023-05-07T06:18:33;11.70;99.90
25248;DHT22;13191;47.472;11.214;2023-05-07T06:21:01;11.80;99.90
25248;DHT22;13191;47.472;11.214;2023-05-07T06:23:26;11.90;99.90
25248;DHT22;13191;47.472;11.214;2023-05-07T06:25:52;12.00;99.90
25248;DHT22;13191;47.472;11.214;2023-05-07T06:28:17;12.10;99.90
25248;DHT22;13191;47.472;11.214;2023-05-07T06:30:43;12.10;99.90
25248;DHT22;13191;47.472;11.214;2023-05-07T06:33:09;12.20;99.90
25248;DHT22;13191;47.472;11.214;2023-05-07T06:35:34;12.30;99.90
25248;DHT22;13191;47.472;11.214;2023-05-07T06:38:00;12.40;99.90
25248;DHT22;13191;47.472;11.214;2023-05-07T06:40:25;12.50;99.90
25248;DHT22;13191;47.472;11.214;2023-05-07T06:42:51;12.50;99.90
25248;DHT22;13191;47.472;11.214;2023-05-07T06:45:16;12.60;99.90
25248;DHT22;13191;47.472;11.214;2023-05-07T06:47:42;12.70;99.90
25248;DHT22;13191;47.472;11.214;2023-05-07T06:50:07;12.80;99.90
25248;DHT22;13191;47.472;11.214;2023-05-07T06:52:33;12.90;99.90
25248;DHT22;13191;47.472;11.214;2023-05-07T06:54:59;13.10;99.90
25248;DHT22;13191;47.472;11.214;2023-05-07T06:57:25;13.10;99.90
25248;DHT22;13191;47.472;11.214;2023-05-07T06:59:50;13.20;99.90
25248;DHT22;13191;47.472;11.214;2023-05-07T07:02:16;13.30;99.90
25248;DHT22;13191;47.472;11.214;2023-05-07T07:04:41;13.40;99.90
25248;DHT22;13191;47.472;11.214;2023-05-07T07:07:07;13.50;99.90
25248;DHT22;13191;47.472;11.214;2023-05-07T07:09:32;13.60;99.90
25248;DHT22;13191;47.472;11.214;2023-05-07T07:11:58;13.60;99.90
25248;DHT22;13191;47.472;11.214;2023-05-07T07:14:23;13.80;99.90
25248;DHT22;13191;47.472;11.214;2023-05-07T07:16:49;13.90;99.90
25248;DHT22;13191;47.472;11.214;2023-05-07T07:21:43;14.20;99.90
25248;DHT22;13191;47.472;11.214;2023-05-07T07:24:10;14.30;99.90
25248;DHT22;13191;47.472;11.214;2023-05-07T07:26:35;14.40;99.90
25248;DHT22;13191;47.472;11.214;2023-05-07T07:29:00;14.50;99.90
25248;DHT22;13191;47.472;11.214;2023-05-07T07:31:26;14.60;99.90
25248;DHT22;13191;47.472;11.214;2023-05-07T07:33:51;14.70;99.90
25248;DHT22;13191;47.472;11.214;2023-05-07T07:36:17;14.80;99.90
25248;DHT22;13191;47.472;11.214;2023-05-07T07:38:42;14.90;99.90
25248;DHT22;13191;47.472;11.214;2023-05-07T07:41:08;15.00;99.90
25248;DHT22;13191;47.472;11.214;2023-05-07T07:43:34;15.10;99.90
25248;DHT22;13191;47.472;11.214;2023-05-07T07:45:59;15.20;99.90
25248;DHT22;13191;47.472;11.214;2023-05-07T07:48:24;15.30;99.90
25248;DHT22;13191;47.472;11.214;2023-05-07T07:50:50;15.40;99.90
25248;DHT22;13191;47.472;11.214;2023-05-07T07:53:19;15.60;99.90
25248;DHT22;13191;47.472;11.214;2023-05-07T07:55:44;15.70;99.90
25248;DHT22;13191;47.472;11.214;2023-05-07T07:58:10;15.80;99.90
25248;DHT22;13191;47.472;11.214;2023-05-07T08:00:36;15.90;99.90
25248;DHT22;13191;47.472;11.214;2023-05-07T08:03:01;15.90;99.90
25248;DHT22;13191;47.472;11.214;2023-05-07T08:05:28;16.00;99.90
25248;DHT22;13191;47.472;11.214;2023-05-07T08:07:53;16.10;99.90
25248;DHT22;13191;47.472;11.214;2023-05-07T08:10:19;16.20;99.90
25248;DHT22;13191;47.472;11.214;2023-05-07T08:12:48;16.30;99.90
25248;DHT22;13191;47.472;11.214;2023-05-07T08:15:14;16.40;99.90
25248;DHT22;13191;47.472;11.214;2023-05-07T08:17:40;16.40;99.90
25248;DHT22;13191;47.472;11.214;2023-05-07T08:20:05;16.50;99.90
25248;DHT22;13191;47.472;11.214;2023-05-07T08:22:31;16.60;99.90
25248;DHT22;13191;47.472;11.214;2023-05-07T08:24:57;16.60;99.90
25248;DHT22;13191;47.472;11.214;2023-05-07T08:27:22;16.70;99.90
25248;DHT22;13191;47.472;11.214;2023-05-07T08:29:48;16.70;99.90
25248;DHT22;13191;47.472;11.214;2023-05-07T08:32:14;16.70;99.90
25248;DHT22;13191;47.472;11.214;2023-05-07T08:34:40;16.70;99.90
25248;DHT22;13191;47.472;11.214;2023-05-07T08:37:05;16.80;99.90
25248;DHT22;13191;47.472;11.214;2023-05-07T08:39:31;16.90;99.90
25248;DHT22;13191;47.472;11.214;2023-05-07T08:41:56;16.90;99.90
25248;DHT22;13191;47.472;11.214;2023-05-07T08:44:25;16.90;99.90
25248;DHT22;13191;47.472;11.214;2023-05-07T08:46:52;17.00;99.90
25248;DHT22;13191;47.472;11.214;2023-05-07T08:49:19;17.10;99.90
25248;DHT22;13191;47.472;11.214;2023-05-07T08:51:45;17.10;99.90
25248;DHT22;13191;47.472;11.214;2023-05-07T08:54:11;17.20;99.90
25248;DHT22;13191;47.472;11.214;2023-05-07T08:56:37;17.30;99.90
25248;DHT22;13191;47.472;11.214;2023-05-07T08:59:03;17.40;99.90
25248;DHT22;13191;47.472;11.214;2023-05-07T09:01:28;17.40;99.90
25248;DHT22;13191;47.472;11.214;2023-05-07T09:03:54;17.50;99.90
25248;DHT22;13191;47.472;11.214;2023-05-07T09:06:20;17.50;99.90
25248;DHT22;13191;47.472;11.214;2023-05-07T09:08:49;17.70;99.90
25248;DHT22;13191;47.472;11.214;2023-05-07T09:11:15;17.80;99.90
25248;DHT22;13191;47.472;11.214;2023-05-07T09:13:41;17.90;99.90
25248;DHT22;13191;47.472;11.214;2023-05-07T09:16:11;17.90;99.90
25248;DHT22;13191;47.472;11.214;2023-05-07T09:18:43;17.90;99.90
25248;DHT22;13191;47.472;11.214;2023-05-07T09:21:10;17.90;99.90
25248;DHT22;13191;47.472;11.214;2023-05-07T09:23:36;18.00;99.90
25248;DHT22;13191;47.472;11.214;2023-05-07T09:26:03;18.00;99.90
25248;DHT22;13191;47.472;11.214;2023-05-07T09:28:32;18.10;99.90
25248;DHT22;13191;47.472;11.214;2023-05-07T09:30:58;18.10;99.90
25248;DHT22;13191;47.472;11.214;2023-05-07T09:33:26;18.20;99.90
25248;DHT22;13191;47.472;11.214;2023-05-07T09:35:51;18.20;99.90
25248;DHT22;13191;47.472;11.214;2023-05-07T09:38:17;18.30;99.90
25248;DHT22;13191;47.472;11.214;2023-05-07T09:40:43;18.30;99.90
25248;DHT22;13191;47.472;11.214;2023-05-07T09:43:13;18.30;99.90
25248;DHT22;13191;47.472;11.214;2023-05-07T09:45:39;18.30;99.90
25248;DHT22;13191;47.472;11.214;2023-05-07T09:48:06;18.40;99.90
25248;DHT22;13191;47.472;11.214;2023-05-07T09:50:34;18.40;99.90
25248;DHT22;13191;47.472;11.214;2023-05-07T09:53:01;18.50;99.90
25248;DHT22;13191;47.472;11.214;2023-05-07T09:55:31;18.60;99.90
25248;DHT22;13191;47.472;11.214;2023-05-07T09:57:57;18.60;99.90
25248;DHT22;13191;47.472;11.214;2023-05-07T10:00:22;18.80;99.90
25248;DHT22;13191;47.472;11.214;2023-05-07T10:02:48;18.90;99.90
25248;DHT22;13191;47.472;11.214;2023-05-07T10:05:15;18.90;99.90
25248;DHT22;13191;47.472;11.214;2023-05-07T10:07:40;19.00;99.90
25248;DHT22;13191;47.472;11.214;2023-05-07T10:10:07;19.10;99.90
25248;DHT22;13191;47.472;11.214;2023-05-07T10:12:33;19.30;99.90
25248;DHT22;13191;47.472;11.214;2023-05-07T10:15:07;19.30;99.90
25248;DHT22;13191;47.472;11.214;2023-05-07T10:17:37;19.30;99.90
25248;DHT22;13191;47.472;11.214;2023-05-07T10:20:03;19.40;99.90
25248;DHT22;13191;47.472;11.214;2023-05-07T10:22:30;19.40;99.90
25248;DHT22;13191;47.472;11.214;2023-05-07T10:24:58;19.40;99.90
25248;DHT22;13191;47.472;11.214;2023-05-07T10:27:24;19.40;99.90
25248;DHT22;13191;47.472;11.214;2023-05-07T10:32:24;19.40;99.90
25248;DHT22;13191;47.472;11.214;2023-05-07T10:34:54;19.40;99.90
25248;DHT22;13191;47.472;11.214;2023-05-07T10:37:20;19.30;99.90
25248;DHT22;13191;47.472;11.214;2023-05-07T10:39:46;19.30;99.90
25248;DHT22;13191;47.472;11.214;2023-05-07T10:42:15;19.40;99.90
25248;DHT22;13191;47.472;11.214;2023-05-07T10:44:44;19.40;99.90
25248;DHT22;13191;47.472;11.214;2023-05-07T10:47:11;19.50;99.90
25248;DHT22;13191;47.472;11.214;2023-05-07T10:52:24;19.70;99.90
25248;DHT22;13191;47.472;11.214;2023-05-07T10:57:35;19.80;99.90
25248;DHT22;13191;47.472;11.214;2023-05-07T11:00:02;19.90;99.90
25248;DHT22;13191;47.472;11.214;2023-05-07T11:05:18;19.90;99.90
25248;DHT22;13191;47.472;11.214;2023-05-07T11:07:44;20.00;99.90
25248;DHT22;13191;47.472;11.214;2023-05-07T11:10:18;20.00;99.90
25248;DHT22;13191;47.472;11.214;2023-05-07T11:15:11;20.30;99.90
25248;DHT22;13191;47.472;11.214;2023-05-07T11:17:52;20.30;99.90
25248;DHT22;13191;47.472;11.214;2023-05-07T11:20:18;20.50;99.90
25248;DHT22;13191;47.472;11.214;2023-05-07T11:22:44;20.60;99.90
25248;DHT22;13191;47.472;11.214;2023-05-07T11:25:10;20.70;99.90
25248;DHT22;13191;47.472;11.214;2023-05-07T11:27:37;20.60;99.90
25248;DHT22;13191;47.472;11.214;2023-05-07T11:30:05;20.60;99.90
25248;DHT22;13191;47.472;11.214;2023-05-07T11:32:31;20.50;99.90
25248;DHT22;13191;47.472;11.214;2023-05-07T11:34:57;20.40;99.90
25248;DHT22;13191;47.472;11.214;2023-05-07T11:37:23;20.30;99.90
25248;DHT22;13191;47.472;11.214;2023-05-07T11:39:49;20.10;99.90
25248;DHT22;13191;47.472;11.214;2023-05-07T11:42:27;19.80;99.90
25248;DHT22;13191;47.472;11.214;2023-05-07T11:44:53;19.80;99.90
25248;DHT22;13191;47.472;11.214;2023-05-07T11:47:19;19.80;99.90
25248;DHT22;13191;47.472;11.214;2023-05-07T11:49:49;19.70;99.90
25248;DHT22;13191;47.472;11.214;2023-05-07T11:52:15;19.80;99.90
25248;DHT22;13191;47.472;11.214;2023-05-07T11:54:41;19.80;99.90
25248;DHT22;13191;47.472;11.214;2023-05-07T11:57:07;19.80;99.90
25248;DHT22;13191;47.472;11.214;2023-05-07T11:59:39;19.90;99.90
25248;DHT22;13191;47.472;11.214;2023-05-07T12:02:10;19.80;99.90
25248;DHT22;13191;47.472;11.214;2023-05-07T12:04:35;19.80;99.90
25248;DHT22;13191;47.472;11.214;2023-05-07T12:07:02;19.70;99.90
25248;DHT22;13191;47.472;11.214;2023-05-07T12:09:28;19.80;99.90
25248;DHT22;13191;47.472;11.214;2023-05-07T12:11:55;19.80;99.90
25248;DHT22;13191;47.472;11.214;2023-05-07T12:14:21;20.00;99.90
25248;DHT22;13191;47.472;11.214;2023-05-07T12:16:46;20.00;99.90
25248;DHT22;13191;47.472;11.214;2023-05-07T12:19:13;20.10;99.90
25248;DHT22;13191;47.472;11.214;2023-05-07T12:21:40;20.20;99.90
25248;DHT22;13191;47.472;11.214;2023-05-07T12:24:06;20.30;99.90
25248;DHT22;13191;47.472;11.214;2023-05-07T12:26:37;20.40;99.90
25248;DHT22;13191;47.472;11.214;2023-05-07T12:29:02;20.40;99.90
25248;DHT22;13191;47.472;11.214;2023-05-07T12:31:31;20.40;99.90
25248;DHT22;13191;47.472;11.214;2023-05-07T12:33:56;20.30;99.90
25248;DHT22;13191;47.472;11.214;2023-05-07T12:36:23;20.40;99.90
25248;DHT22;13191;47.472;11.214;2023-05-07T12:38:51;20.40;99.90
25248;DHT22;13191;47.472;11.214;2023-05-07T12:41:16;20.50;99.90
25248;DHT22;13191;47.472;11.214;2023-05-07T12:43:45;20.60;99.90
25248;DHT22;13191;47.472;11.214;2023-05-07T12:46:11;20.70;99.90
25248;DHT22;13191;47.472;11.214;2023-05-07T12:48:43;20.90;99.90
25248;DHT22;13191;47.472;11.214;2023-05-07T12:51:10;21.00;99.90
25248;DHT22;13191;47.472;11.214;2023-05-07T12:53:42;21.10;99.90
25248;DHT22;13191;47.472;11.214;2023-05-07T12:56:08;21.10;99.90
25248;DHT22;13191;47.472;11.214;2023-05-07T12:58:34;21.20;99.90
25248;DHT22;13191;47.472;11.214;2023-05-07T13:01:01;21.20;99.90
25248;DHT22;13191;47.472;11.214;2023-05-07T13:03:30;21.20;99.90
25248;DHT22;13191;47.472;11.214;2023-05-07T13:05:57;21.20;99.90
25248;DHT22;13191;47.472;11.214;2023-05-07T13:08:30;21.30;99.90
25248;DHT22;13191;47.472;11.214;2023-05-07T13:11:30;21.50;99.90
25248;DHT22;13191;47.472;11.214;2023-05-07T13:13:56;21.60;99.90
25248;DHT22;13191;47.472;11.214;2023-05-07T13:16:21;21.50;99.90
25248;DHT22;13191;47.472;11.214;2023-05-07T13:18:48;21.50;99.90
25248;DHT22;13191;47.472;11.214;2023-05-07T13:21:13;21.50;99.90
25248;DHT22;13191;47.472;11.214;2023-05-07T13:23:39;21.50;99.90
25248;DHT22;13191;47.472;11.214;2023-05-07T13:26:04;21.40;99.90
25248;DHT22;13191;47.472;11.214;2023-05-07T13:28:30;21.40;99.90
25248;DHT22;13191;47.472;11.214;2023-05-07T13:30:55;21.40;99.90
25248;DHT22;13191;47.472;11.214;2023-05-07T13:33:21;21.30;99.90
25248;DHT22;13191;47.472;11.214;2023-05-07T13:35:46;21.20;99.90
25248;DHT22;13191;47.472;11.214;2023-05-07T13:38:12;21.10;99.90
25248;DHT22;13191;47.472;11.214;2023-05-07T13:40:37;21.10;99.90
25248;DHT22;13191;47.472;11.214;2023-05-07T13:43:03;21.20;99.90
25248;DHT22;13191;47.472;11.214;2023-05-07T13:45:29;21.30;99.90
25248;DHT22;13191;47.472;11.214;2023-05-07T13:47:55;21.30;99.90
25248;DHT22;13191;47.472;11.214;2023-05-07T13:50:20;21.40;99.90
25248;DHT22;13191;47.472;11.214;2023-05-07T13:52:46;21.60;99.90
25248;DHT22;13191;47.472;11.214;2023-05-07T13:55:19;21.60;99.90
25248;DHT22;13191;47.472;11.214;2023-05-07T13:57:45;21.70;99.90
25248;DHT22;13191;47.472;11.214;2023-05-07T14:00:11;21.60;99.90
25248;DHT22;13191;47.472;11.214;2023-05-07T14:02:37;21.60;99.90
25248;DHT22;13191;47.472;11.214;2023-05-07T14:05:02;21.50;99.90
25248;DHT22;13191;47.472;11.214;2023-05-07T14:07:28;21.50;99.90
25248;DHT22;13191;47.472;11.214;2023-05-07T14:09:54;21.40;99.90
25248;DHT22;13191;47.472;11.214;2023-05-07T14:12:19;21.30;99.90
25248;DHT22;13191;47.472;11.214;2023-05-07T14:14:45;21.30;99.90
25248;DHT22;13191;47.472;11.214;2023-05-07T14:17:12;21.20;99.90
25248;DHT22;13191;47.472;11.214;2023-05-07T14:19:37;21.20;99.90
25248;DHT22;13191;47.472;11.214;2023-05-07T14:22:03;21.10;99.90
25248;DHT22;13191;47.472;11.214;2023-05-07T14:24:28;21.00;99.90
25248;DHT22;13191;47.472;11.214;2023-05-07T14:26:55;20.80;99.90
25248;DHT22;13191;47.472;11.214;2023-05-07T14:29:20;20.40;99.90
25248;DHT22;13191;47.472;11.214;2023-05-07T14:31:46;20.30;99.90
25248;DHT22;13191;47.472;11.214;2023-05-07T14:34:11;19.90;99.90
25248;DHT22;13191;47.472;11.214;2023-05-07T14:36:37;19.80;99.90
25248;DHT22;13191;47.472;11.214;2023-05-07T14:39:03;19.70;99.90
25248;DHT22;13191;47.472;11.214;2023-05-07T14:41:29;19.70;99.90
25248;DHT22;13191;47.472;11.214;2023-05-07T14:43:54;19.70;99.90
25248;DHT22;13191;47.472;11.214;2023-05-07T14:46:20;19.70;99.90
25248;DHT22;13191;47.472;11.214;2023-05-07T14:48:45;19.70;99.90
25248;DHT22;13191;47.472;11.214;2023-05-07T14:51:12;19.80;99.90
25248;DHT22;13191;47.472;11.214;2023-05-07T14:53:37;19.90;99.90
25248;DHT22;13191;47.472;11.214;2023-05-07T14:56:03;20.00;99.90
25248;DHT22;13191;47.472;11.214;2023-05-07T14:58:29;20.10;99.90
25248;DHT22;13191;47.472;11.214;2023-05-07T15:00:54;20.20;99.90
25248;DHT22;13191;47.472;11.214;2023-05-07T15:03:20;20.30;99.90
25248;DHT22;13191;47.472;11.214;2023-05-07T15:05:45;20.40;99.90
25248;DHT22;13191;47.472;11.214;2023-05-07T15:08:11;20.40;99.90
25248;DHT22;13191;47.472;11.214;2023-05-07T15:10:36;20.60;99.90
25248;DHT22;13191;47.472;11.214;2023-05-07T15:13:08;20.70;99.90
25248;DHT22;13191;47.472;11.214;2023-05-07T15:15:34;20.70;99.90
25248;DHT22;13191;47.472;11.214;2023-05-07T15:18:00;20.60;99.90
25248;DHT22;13191;47.472;11.214;2023-05-07T15:20:26;20.60;99.90
25248;DHT22;13191;47.472;11.214;2023-05-07T15:22:51;20.70;99.90
25248;DHT22;13191;47.472;11.214;2023-05-07T15:25:17;20.80;99.90
25248;DHT22;13191;47.472;11.214;2023-05-07T15:27:43;21.10;99.90
25248;DHT22;13191;47.472;11.214;2023-05-07T15:30:08;21.30;99.90
25248;DHT22;13191;47.472;11.214;2023-05-07T15:32:36;21.60;99.90